createdAt,value
2022-09-21T00:01:36.371Z,102551.34
2022-09-21T00:04:05.666Z,102553.22
2022-09-21T00:06:36.588Z,102554.06
2022-09-21T00:09:06.206Z,102537.59
2022-09-21T00:11:35.664Z,102556.34
2022-09-21T00:14:07.371Z,102551.13
2022-09-21T00:16:37.344Z,102554.88
2022-09-21T00:19:06.232Z,102547.78
2022-09-21T00:21:35.339Z,102538.00
2022-09-21T00:24:04.476Z,102545.50
2022-09-21T00:26:32.558Z,102544.66
2022-09-21T00:29:02.410Z,102551.13
2022-09-21T00:31:32.323Z,102546.75
2022-09-21T00:34:03.693Z,102541.75
2022-09-21T00:36:31.884Z,102553.19
2022-09-21T00:39:02.147Z,102547.16
2022-09-21T00:41:31.942Z,102550.91
2022-09-21T00:44:24.931Z,102554.84
2022-09-21T00:46:55.126Z,102562.13
2022-09-21T00:49:25.560Z,102562.13
2022-09-21T00:51:55.117Z,102556.09
2022-09-21T00:54:28.244Z,102560.66
2022-09-21T00:56:59.853Z,102555.66
2022-09-21T00:59:30.223Z,102562.94
2022-09-21T01:01:59.872Z,102555.03
2022-09-21T01:04:30.513Z,102562.31
2022-09-21T01:07:04.161Z,102557.94
2022-09-21T01:09:33.007Z,102558.78
2022-09-21T01:12:12.344Z,102563.34
2022-09-21T01:15:11.169Z,102557.94
2022-09-21T01:17:47.636Z,102559.59
2022-09-21T01:20:41.303Z,102562.31
2022-09-21T01:23:25.578Z,102553.34
2022-09-21T01:26:05.732Z,102559.81
2022-09-21T01:28:58.222Z,102558.13
2022-09-21T01:31:29.802Z,102560.84
2022-09-21T01:34:03.721Z,102561.88
2022-09-21T01:36:34.533Z,102563.53
2022-09-21T01:39:05.981Z,102562.72
2022-09-21T01:41:36.274Z,102561.03
2022-09-21T01:44:10.127Z,102560.22
2022-09-21T01:46:39.256Z,102556.66
2022-09-21T01:49:12.525Z,102559.56
2022-09-21T01:51:45.305Z,102552.50
2022-09-21T01:54:20.625Z,102545.63
2022-09-21T01:56:53.957Z,102554.56
2022-09-21T01:59:32.761Z,102550.63
2022-09-21T02:02:06.352Z,102551.25
2022-09-21T02:04:36.315Z,102556.84
2022-09-21T02:07:04.148Z,102554.16
2022-09-21T02:09:32.255Z,102549.34
2022-09-21T02:12:02.171Z,102557.25
2022-09-21T02:14:33.626Z,102542.06
2022-09-21T02:17:11.789Z,102550.19
2022-09-21T02:19:48.194Z,102543.94
2022-09-21T02:22:25.014Z,102543.13
2022-09-21T02:24:56.003Z,102548.72
2022-09-21T02:27:32.676Z,102543.50
2022-09-21T02:30:09.000Z,102546.22
2022-09-21T02:32:46.904Z,102549.13
2022-09-21T02:35:21.602Z,102552.03
2022-09-21T02:37:56.052Z,102551.19
2022-09-21T02:40:30.721Z,102549.56
2022-09-21T02:43:03.287Z,102546.22
2022-09-21T02:45:36.162Z,102547.06
2022-09-21T02:48:09.208Z,102548.28
2022-09-21T02:50:42.783Z,102549.34
2022-09-21T02:53:12.457Z,102546.63
2022-09-21T02:55:41.141Z,102540.38
2022-09-21T02:58:13.234Z,102547.66
2022-09-21T03:00:42.412Z,102547.88
2022-09-21T03:03:18.335Z,102529.72
2022-09-21T03:05:48.880Z,102530.16
2022-09-21T03:08:16.721Z,102551.81
2022-09-21T03:10:44.973Z,102545.56
2022-09-21T03:13:13.197Z,102548.28
2022-09-21T03:15:42.638Z,102553.88
2022-09-21T03:18:11.353Z,102548.66
2022-09-21T03:20:40.179Z,102551.38
2022-09-21T03:23:08.344Z,102552.22
2022-09-21T03:25:36.416Z,102548.66
2022-09-21T03:28:04.111Z,102556.78
2022-09-21T03:30:32.982Z,102553.25
2022-09-21T03:33:02.056Z,102555.31
2022-09-21T03:35:30.082Z,102549.28
2022-09-21T03:37:58.158Z,102558.41
2022-09-21T03:40:26.917Z,102559.44
2022-09-21T03:42:55.486Z,102565.69
2022-09-21T03:45:24.773Z,102551.72
2022-09-21T03:47:55.800Z,102568.59
2022-09-21T03:50:25.264Z,102571.50
2022-09-21T03:52:53.119Z,102572.53
2022-09-21T03:55:21.661Z,102566.47
2022-09-21T03:57:49.586Z,102574.78
2022-09-21T04:00:17.446Z,102570.41
2022-09-21T04:02:45.354Z,102565.22
2022-09-21T04:05:16.031Z,102569.97
2022-09-21T04:07:46.777Z,102562.88
2022-09-21T04:10:16.501Z,102566.66
2022-09-21T04:12:45.152Z,102571.22
2022-09-21T04:15:15.608Z,102571.22
2022-09-21T04:17:43.602Z,102566.84
2022-09-21T04:20:11.419Z,102573.91
2022-09-21T04:22:43.397Z,102574.13
2022-09-21T04:25:13.221Z,102573.47
2022-09-21T04:27:41.376Z,102568.28
2022-09-21T04:30:11.515Z,102575.53
2022-09-21T04:32:39.209Z,102572.84
2022-09-21T04:35:07.432Z,102576.56
2022-09-21T04:37:35.201Z,102574.91
2022-09-21T04:40:04.610Z,102573.88
2022-09-21T04:42:33.922Z,102581.34
2022-09-21T04:45:01.742Z,102580.50
2022-09-21T04:47:31.083Z,102582.38
2022-09-21T04:49:58.791Z,102578.84
2022-09-21T04:52:26.739Z,102585.28
2022-09-21T04:54:54.452Z,102574.63
2022-09-21T04:57:22.140Z,102589.84
2022-09-21T04:59:51.252Z,102587.53
2022-09-21T05:02:19.051Z,102583.81
2022-09-21T05:04:50.778Z,102585.66
2022-09-21T05:07:18.998Z,102573.16
2022-09-21T05:10:04.104Z,102585.88
2022-09-21T05:12:33.223Z,102582.13
2022-09-21T05:15:02.474Z,102586.69
2022-09-21T05:17:30.471Z,102581.50
2022-09-21T05:19:58.190Z,102586.91
2022-09-21T05:22:26.041Z,102586.91
2022-09-21T05:24:53.723Z,102594.38
2022-09-21T05:27:21.567Z,102587.94
2022-09-21T05:29:49.883Z,102586.47
2022-09-21T05:32:26.341Z,102593.53
2022-09-21T05:35:02.316Z,102599.97
2022-09-21T05:37:53.232Z,102606.41
2022-09-21T05:40:21.867Z,102605.16
2022-09-21T05:42:50.282Z,102604.34
2022-09-21T05:45:21.079Z,102601.19
2022-09-21T05:48:08.234Z,102609.94
2022-09-21T05:50:46.880Z,102609.28
2022-09-21T05:53:30.083Z,102614.88
2022-09-21T05:56:00.777Z,102605.50
2022-09-21T05:58:38.096Z,102620.47
2022-09-21T06:01:19.641Z,102619.44
2022-09-21T06:03:50.214Z,102619.66
2022-09-21T06:06:18.614Z,102624.22
2022-09-21T06:08:46.376Z,102620.69
2022-09-21T06:11:15.858Z,102624.22
2022-09-21T06:13:43.827Z,102621.50
2022-09-21T06:16:11.923Z,102619.84
2022-09-21T06:18:40.501Z,102628.13
2022-09-21T06:21:10.060Z,102626.28
2022-09-21T06:23:38.667Z,102629.81
2022-09-21T06:26:06.768Z,102617.09
2022-09-21T06:28:34.663Z,102626.91
2022-09-21T06:31:02.489Z,102631.28
2022-09-21T06:33:30.234Z,102634.81
2022-09-21T06:35:59.868Z,102632.75
2022-09-21T06:38:30.203Z,102623.38
2022-09-21T06:41:02.612Z,102626.31
2022-09-21T06:43:30.836Z,102627.16
2022-09-21T06:46:00.473Z,102628.00
2022-09-21T06:48:29.244Z,102626.97
2022-09-21T06:50:59.429Z,102624.25
2022-09-21T06:53:29.748Z,102627.81
2022-09-21T06:56:02.149Z,102625.94
2022-09-21T06:58:31.000Z,102624.06
2022-09-21T07:00:58.946Z,102616.94
2022-09-21T07:03:26.766Z,102627.81
2022-09-21T07:05:54.512Z,102635.06
2022-09-21T07:11:13.172Z,102635.25
2022-09-21T07:13:40.943Z,102630.91
2022-09-21T07:16:10.153Z,102631.72
2022-09-21T07:18:44.050Z,102638.81
2022-09-21T07:21:13.180Z,102633.41
2022-09-21T07:23:41.067Z,102629.03
2022-09-21T07:26:10.639Z,102632.38
2022-09-21T07:28:40.639Z,102633.19
2022-09-21T07:31:10.137Z,102634.88
2022-09-21T07:33:38.219Z,102631.13
2022-09-21T07:36:10.482Z,102635.50
2022-09-21T07:38:39.574Z,102628.44
2022-09-21T07:41:07.994Z,102639.25
2022-09-21T07:43:35.782Z,102633.84
2022-09-21T07:46:04.899Z,102633.44
2022-09-21T07:48:32.712Z,102629.91
2022-09-21T07:51:06.235Z,102629.28
2022-09-21T07:53:34.535Z,102627.00
2022-09-21T07:56:03.520Z,102625.97
2022-09-21T07:58:49.339Z,102621.63
2022-09-21T08:01:19.008Z,102632.03
2022-09-21T08:03:49.748Z,102624.75
2022-09-21T08:06:17.733Z,102629.31
2022-09-21T08:08:45.783Z,102628.50
2022-09-21T08:11:13.527Z,102618.53
2022-09-21T08:13:41.301Z,102623.72
2022-09-21T08:16:09.048Z,102620.19
2022-09-21T08:18:40.093Z,102620.19
2022-09-21T08:21:09.947Z,102610.38
2022-09-21T08:23:43.056Z,102601.44
2022-09-21T08:26:18.641Z,102632.25
2022-09-21T08:28:49.430Z,102626.88
2022-09-21T08:31:19.678Z,102634.97
2022-09-21T08:33:49.811Z,102627.50
2022-09-21T08:36:17.966Z,102627.50
2022-09-21T08:38:45.770Z,102632.91
2022-09-21T08:41:17.840Z,102629.56
2022-09-21T08:43:50.089Z,102630.00
2022-09-21T08:46:19.952Z,102630.66
2022-09-21T08:48:54.554Z,102633.97
2022-09-21T08:51:25.519Z,102632.13
2022-09-21T08:53:56.933Z,102640.84
2022-09-21T08:56:37.007Z,102634.22
2022-09-21T08:59:15.755Z,102626.75
2022-09-21T09:01:58.382Z,102628.03
2022-09-21T09:04:54.055Z,102624.28
2022-09-21T09:07:43.394Z,102630.53
2022-09-21T09:10:27.017Z,102637.41
2022-09-21T09:13:05.014Z,102623.03
2022-09-21T09:15:51.858Z,102638.69
2022-09-21T09:18:25.583Z,102633.91
2022-09-21T09:20:59.251Z,102640.97
2022-09-21T09:23:30.019Z,102628.25
2022-09-21T09:26:02.262Z,102636.00
2022-09-21T09:28:34.471Z,102637.69
2022-09-21T09:31:06.887Z,102633.94
2022-09-21T09:33:49.482Z,102634.97
2022-09-21T09:36:30.043Z,102635.41
2022-09-21T09:39:12.825Z,102633.97
2022-09-21T09:42:00.539Z,102640.41
2022-09-21T09:44:44.936Z,102637.31
2022-09-21T09:47:23.165Z,102640.44
2022-09-21T09:50:04.385Z,102635.03
2022-09-21T09:52:34.556Z,102637.56
2022-09-21T09:55:11.802Z,102638.63
2022-09-21T09:57:39.806Z,102636.53
2022-09-21T10:00:12.195Z,102636.34
2022-09-21T10:02:48.235Z,102644.91
2022-09-21T10:05:22.822Z,102635.56
2022-09-21T10:07:53.216Z,102629.09
2022-09-21T10:10:33.185Z,102636.63
2022-09-21T10:13:11.546Z,102637.06
2022-09-21T10:15:44.938Z,102633.94
2022-09-21T10:18:21.949Z,102631.66
2022-09-21T10:20:59.795Z,102640.25
2022-09-21T10:23:30.249Z,102642.53
2022-09-21T10:26:01.329Z,102632.13
2022-09-21T10:28:30.062Z,102624.44
2022-09-21T10:31:14.413Z,102625.06
2022-09-21T10:33:53.463Z,102636.97
2022-09-21T10:36:33.052Z,102624.88
2022-09-21T10:39:24.597Z,102626.34
2022-09-21T10:41:56.002Z,102632.59
2022-09-21T10:44:27.164Z,102624.28
2022-09-21T10:49:30.479Z,102620.94
2022-09-21T10:52:00.333Z,102617.84
2022-09-21T10:54:34.242Z,102615.75
2022-09-21T10:57:15.302Z,102615.53
2022-09-21T10:59:43.191Z,102619.72
2022-09-21T11:02:29.635Z,102613.88
2022-09-21T11:05:02.316Z,102602.84
2022-09-21T11:07:34.541Z,102618.88
2022-09-21T11:10:12.221Z,102612.84
2022-09-21T11:12:50.490Z,102611.59
2022-09-21T11:15:39.994Z,102615.16
2022-09-21T11:18:15.044Z,102609.53
2022-09-21T11:20:48.370Z,102614.53
2022-09-21T11:23:30.796Z,102609.50
2022-09-21T11:26:06.689Z,102616.38
2022-09-21T11:28:41.852Z,102612.44
2022-09-21T11:31:41.045Z,102608.25
2022-09-21T11:34:31.049Z,102620.34
2022-09-21T11:37:11.009Z,102612.00
2022-09-21T11:39:52.092Z,102603.88
2022-09-21T11:42:35.947Z,102604.28
2022-09-21T11:45:12.375Z,102602.19
2022-09-21T11:48:03.526Z,102590.13
2022-09-21T11:50:57.518Z,102599.91
2022-09-21T11:53:37.075Z,102595.31
2022-09-21T11:56:27.044Z,102582.41
2022-09-21T11:59:07.419Z,102586.78
2022-09-21T12:01:56.505Z,102584.06
2022-09-21T12:04:44.364Z,102589.25
2022-09-21T12:07:25.030Z,102586.56
2022-09-21T12:10:23.899Z,102589.88
2022-09-21T12:12:58.645Z,102582.59
2022-09-21T12:15:35.992Z,102583.44
2022-09-21T12:18:10.029Z,102580.50
2022-09-21T12:20:45.735Z,102576.53
2022-09-21T12:23:18.411Z,102564.66
2022-09-21T12:25:53.365Z,102571.34
2022-09-21T12:28:25.868Z,102570.88
2022-09-21T12:31:01.896Z,102556.50
2022-09-21T12:33:40.444Z,102554.19
2022-09-21T12:36:17.150Z,102560.03
2022-09-21T12:38:47.128Z,102557.09
2022-09-21T12:41:19.810Z,102560.84
2022-09-21T12:43:53.145Z,102557.03
2022-09-21T12:46:27.080Z,102556.84
2022-09-21T12:48:55.145Z,102552.03
2022-09-21T12:51:28.402Z,102542.22
2022-09-21T12:54:00.555Z,102543.69
2022-09-21T12:56:37.164Z,102537.22
2022-09-21T12:59:14.829Z,102547.84
2022-09-21T13:01:54.822Z,102532.81
2022-09-21T13:04:45.264Z,102530.69
2022-09-21T13:07:34.832Z,102537.56
2022-09-21T13:10:15.675Z,102532.56
2022-09-21T13:12:47.241Z,102530.44
2022-09-21T13:15:21.957Z,102531.91
2022-09-21T13:18:05.708Z,102512.72
2022-09-21T13:20:40.442Z,102525.59
2022-09-21T13:23:17.568Z,102528.72
2022-09-21T13:25:50.860Z,102521.81
2022-09-21T13:28:23.893Z,102516.16
2022-09-21T13:31:47.220Z,102521.16
2022-09-21T13:34:24.529Z,102513.19
2022-09-21T13:37:27.622Z,102511.09
2022-09-21T13:40:44.371Z,102511.25
2022-09-21T13:43:25.348Z,102520.00
2022-09-21T13:45:56.763Z,102517.50
2022-09-21T13:48:29.824Z,102512.31
2022-09-21T13:51:07.990Z,102513.13
2022-09-21T13:53:41.145Z,102514.19
2022-09-21T13:56:20.558Z,102506.03
2022-09-21T13:58:52.154Z,102499.41
2022-09-21T14:04:21.711Z,102504.72
2022-09-21T14:06:53.385Z,102500.53
2022-09-21T14:09:26.113Z,102503.84
2022-09-21T14:11:58.102Z,102492.53
2022-09-21T14:14:30.622Z,102494.81
2022-09-21T14:17:00.378Z,102494.59
2022-09-21T14:20:06.179Z,102494.38
2022-09-21T14:22:38.909Z,102488.72
2022-09-21T14:25:48.855Z,102494.16
2022-09-21T14:28:18.345Z,102489.56
2022-09-21T14:30:54.467Z,102493.94
2022-09-21T14:33:30.074Z,102485.38
2022-09-21T14:35:59.108Z,102486.22
2022-09-21T14:38:32.332Z,102485.16
2022-09-21T14:41:03.713Z,102487.66
2022-09-21T14:43:35.230Z,102492.03
2022-09-21T14:46:17.085Z,102478.44
2022-09-21T14:48:55.376Z,102480.34
2022-09-21T14:51:38.192Z,102470.53
2022-09-21T14:54:26.101Z,102469.69
2022-09-21T14:57:10.927Z,102468.88
2022-09-21T14:59:55.127Z,102466.75
2022-09-21T15:02:25.631Z,102466.53
2022-09-21T15:05:05.576Z,102462.53
2022-09-21T15:07:59.549Z,102466.91
2022-09-21T15:10:53.071Z,102463.38
2022-09-21T15:13:39.058Z,102461.09
2022-09-21T15:16:21.846Z,102466.53
2022-09-21T15:18:51.324Z,102459.66
2022-09-21T15:21:26.531Z,102456.13
2022-09-21T15:23:55.146Z,102456.13
2022-09-21T15:26:29.461Z,102443.41
2022-09-21T15:29:09.252Z,102452.56
2022-09-21T15:31:39.755Z,102441.72
2022-09-21T15:34:08.867Z,102445.03
2022-09-21T15:36:40.227Z,102443.16
2022-09-21T15:39:09.450Z,102439.59
2022-09-21T15:41:49.539Z,102439.59
2022-09-21T15:44:18.995Z,102445.88
2022-09-21T15:46:51.458Z,102439.59
2022-09-21T15:49:21.380Z,102436.91
2022-09-21T15:51:54.055Z,102435.00
2022-09-21T15:54:32.637Z,102438.78
2022-09-21T15:57:08.459Z,102436.06
2022-09-21T15:59:36.830Z,102437.94
2022-09-21T16:02:13.437Z,102436.28
2022-09-21T16:04:49.279Z,102433.56
2022-09-21T16:07:27.021Z,102427.91
2022-09-21T16:09:55.188Z,102427.91
2022-09-21T16:12:44.702Z,102427.91
2022-09-21T16:15:24.427Z,102428.75
2022-09-21T16:18:02.949Z,102422.72
2022-09-21T16:20:43.342Z,102432.75
2022-09-21T16:23:17.263Z,102423.78
2022-09-21T16:25:46.031Z,102429.19
2022-09-21T16:28:36.595Z,102428.38
2022-09-21T16:31:37.305Z,102425.88
2022-09-21T16:34:35.468Z,102429.63
2022-09-21T16:37:24.336Z,102424.41
2022-09-21T16:39:52.962Z,102426.28
2022-09-21T16:42:21.263Z,102430.66
2022-09-21T16:44:51.459Z,102430.66
2022-09-21T16:47:25.373Z,102434.44
2022-09-21T16:49:55.372Z,102436.31
2022-09-21T16:52:23.430Z,102430.06
2022-09-21T16:54:51.184Z,102447.19
2022-09-21T16:57:19.740Z,102440.91
2022-09-21T16:59:47.945Z,102442.81
2022-09-21T17:02:18.325Z,102437.59
2022-09-21T17:04:47.903Z,102442.19
2022-09-21T17:07:16.798Z,102440.53
2022-09-21T17:09:47.739Z,102434.34
2022-09-21T17:12:18.241Z,102442.63
2022-09-21T17:14:47.285Z,102427.47
2022-09-21T17:17:20.363Z,102438.25
2022-09-21T17:19:49.971Z,102437.66
2022-09-21T17:22:18.517Z,102435.78
2022-09-21T17:24:50.690Z,102438.47
2022-09-21T17:27:19.696Z,102441.19
2022-09-21T17:29:49.298Z,102443.09
2022-09-21T17:32:20.871Z,102443.31
2022-09-21T17:34:52.611Z,102438.72
2022-09-21T17:37:21.891Z,102438.72
2022-09-21T17:39:49.892Z,102436.22
2022-09-21T17:42:21.220Z,102442.69
2022-09-21T17:45:03.868Z,102439.38
2022-09-21T17:47:34.063Z,102436.88
2022-09-21T17:50:16.760Z,102442.53
2022-09-21T17:53:03.077Z,102442.16
2022-09-21T17:55:32.083Z,102450.91
2022-09-21T17:58:20.243Z,102441.09
2022-09-21T18:00:57.323Z,102445.06
2022-09-21T18:03:28.784Z,102446.75
2022-09-21T18:06:00.584Z,102446.97
2022-09-21T18:08:29.176Z,102441.75
2022-09-21T18:11:04.380Z,102448.22
2022-09-21T18:13:41.236Z,102443.03
2022-09-21T18:16:24.334Z,102449.50
2022-09-21T18:19:02.470Z,102451.63
2022-09-21T18:21:31.127Z,102451.00
2022-09-21T18:24:16.076Z,102456.44
2022-09-21T18:26:44.338Z,102446.06
2022-09-21T18:29:39.351Z,102458.75
2022-09-21T18:32:28.760Z,102448.94
2022-09-21T18:35:12.491Z,102452.94
2022-09-21T18:37:49.806Z,102454.81
2022-09-21T18:40:25.819Z,102457.75
2022-09-21T18:43:00.554Z,102456.09
2022-09-21T18:45:31.900Z,102450.94
2022-09-21T18:48:17.452Z,102460.06
2022-09-21T18:50:53.762Z,102449.44
2022-09-21T18:53:26.684Z,102455.91
2022-09-21T18:55:54.870Z,102454.25
2022-09-21T18:58:22.964Z,102450.94
2022-09-21T19:00:52.044Z,102448.66
2022-09-21T19:03:20.690Z,102452.19
2022-09-21T19:05:59.687Z,102457.84
2022-09-21T19:08:32.767Z,102461.59
2022-09-21T19:11:09.528Z,102457.22
2022-09-21T19:13:47.526Z,102464.53
2022-09-21T19:16:25.513Z,102464.75
2022-09-21T19:19:02.435Z,102457.66
2022-09-21T19:21:41.231Z,102467.91
2022-09-21T19:24:19.541Z,102466.22
2022-09-21T19:27:04.702Z,102470.00
2022-09-21T19:29:45.686Z,102471.88
2022-09-21T19:32:16.958Z,102469.38
2022-09-21T19:34:45.101Z,102466.06
2022-09-21T19:37:14.419Z,102463.56
2022-09-21T19:39:42.536Z,102467.31
2022-09-21T19:42:25.389Z,102452.78
2022-09-21T19:45:07.894Z,102466.09
2022-09-21T19:47:41.441Z,102455.69
2022-09-21T19:50:17.833Z,102460.28
2022-09-21T19:52:47.733Z,102463.22
2022-09-21T19:55:35.627Z,102459.06
2022-09-21T19:58:21.978Z,102463.63
2022-09-21T20:00:54.311Z,102449.72
2022-09-21T20:03:31.592Z,102461.34
2022-09-21T20:06:07.031Z,102459.69
2022-09-21T20:08:43.086Z,102458.88
2022-09-21T20:11:14.332Z,102460.97
2022-09-21T20:13:57.738Z,102470.16
2022-09-21T20:16:34.083Z,102465.78
2022-09-21T20:19:16.964Z,102472.44
2022-09-21T20:21:46.335Z,102469.75
2022-09-21T20:24:25.060Z,102469.97
2022-09-21T20:26:53.115Z,102478.09
2022-09-21T20:29:21.889Z,102470.19
2022-09-21T20:31:52.294Z,102478.31
2022-09-21T20:34:20.774Z,102466.84
2022-09-21T20:36:48.577Z,102470.59
2022-09-21T20:39:16.317Z,102459.75
2022-09-21T20:41:45.417Z,102454.38
2022-09-21T20:44:14.432Z,102470.84
2022-09-21T20:46:42.243Z,102461.06
2022-09-21T20:49:10.104Z,102467.31
2022-09-21T20:51:38.672Z,102462.94
2022-09-21T20:54:07.078Z,102461.28
2022-09-21T20:56:34.971Z,102466.88
2022-09-21T20:59:04.193Z,102461.47
2022-09-21T21:01:31.984Z,102457.31
2022-09-21T21:04:02.981Z,102450.25
2022-09-21T21:06:32.778Z,102469.41
2022-09-21T21:09:01.009Z,102469.41
2022-09-21T21:11:28.960Z,102476.91
2022-09-21T21:13:57.387Z,102473.38
2022-09-21T21:16:26.591Z,102472.53
2022-09-21T21:18:54.456Z,102468.16
2022-09-21T21:21:24.607Z,102471.09
2022-09-21T21:24:25.201Z,102464.00
2022-09-21T21:27:02.555Z,102466.31
2022-09-21T21:29:31.397Z,102459.22
2022-09-21T21:32:00.795Z,102456.13
2022-09-21T21:34:29.214Z,102463.41
2022-09-21T21:36:57.103Z,102460.91
2022-09-21T21:39:25.033Z,102458.44
2022-09-21T21:41:53.138Z,102456.56
2022-09-21T21:44:20.838Z,102453.22
2022-09-21T21:46:48.704Z,102456.97
2022-09-21T21:49:18.035Z,102453.66
2022-09-21T21:51:45.722Z,102441.97
2022-09-21T21:54:13.453Z,102453.25
2022-09-21T21:56:41.166Z,102450.53
2022-09-21T21:59:08.925Z,102451.59
2022-09-21T22:01:39.215Z,102449.91
2022-09-21T22:04:07.347Z,102449.31
2022-09-21T22:06:37.928Z,102447.63
2022-09-21T22:09:07.588Z,102443.47
2022-09-21T22:11:35.780Z,102446.41
2022-09-21T22:14:05.216Z,102447.44
2022-09-21T22:16:34.894Z,102446.81
2022-09-21T22:19:05.024Z,102442.66
2022-09-21T22:21:35.215Z,102445.38
2022-09-21T22:24:05.898Z,102441.22
2022-09-21T22:26:37.286Z,102444.97
2022-09-21T22:29:06.852Z,102440.59
2022-09-21T22:31:37.575Z,102439.97
2022-09-21T22:34:05.587Z,102444.56
2022-09-21T22:36:35.679Z,102448.31
2022-09-21T22:39:06.122Z,102441.22
2022-09-21T22:41:36.791Z,102446.84
2022-09-21T22:44:05.152Z,102443.31
2022-09-21T22:46:33.434Z,102446.25
2022-09-21T22:49:01.620Z,102437.28
2022-09-21T22:51:29.961Z,102431.69
2022-09-21T22:53:57.828Z,102443.97
2022-09-21T22:56:29.271Z,102428.16
2022-09-21T22:58:58.919Z,102439.78
2022-09-21T23:01:29.329Z,102436.25
2022-09-21T23:03:58.845Z,102437.50
2022-09-21T23:06:29.170Z,102434.19
2022-09-21T23:08:59.116Z,102439.59
2022-09-21T23:11:30.232Z,102436.06
2022-09-21T23:13:59.053Z,102437.09
2022-09-21T23:16:28.687Z,102437.31
2022-09-21T23:18:57.785Z,102435.66
2022-09-21T23:21:27.329Z,102431.28
2022-09-21T23:23:56.817Z,102430.66
2022-09-21T23:26:26.106Z,102434.41
2022-09-21T23:28:57.089Z,102428.38
2022-09-21T23:31:26.646Z,102424.22
2022-09-21T23:33:56.904Z,102432.34
2022-09-21T23:36:26.701Z,102429.00
2022-09-21T23:38:54.731Z,102431.91
2022-09-21T23:41:24.501Z,102431.09
2022-09-21T23:43:52.862Z,102426.94
2022-09-21T23:46:24.899Z,102419.03
2022-09-21T23:48:53.245Z,102428.19
2022-09-21T23:51:21.423Z,102430.06
2022-09-21T23:53:49.194Z,102419.44
2022-09-21T23:56:19.187Z,102401.97
2022-09-21T23:58:47.150Z,102415.28
